createdAt,value
2018-12-21T00:09:39.315Z,72.8
2018-12-21T00:24:44.660Z,72.2
2018-12-21T00:40:05.586Z,71.8
2018-12-21T00:55:18.566Z,70.8
2018-12-21T01:10:31.599Z,70.3
2018-12-21T01:25:44.484Z,69.5
2018-12-21T01:40:57.040Z,69
2018-12-21T01:56:11.831Z,69.3
2018-12-21T02:11:24.118Z,68.9
2018-12-21T02:26:37.488Z,68.9
2018-12-21T02:41:45.713Z,70.5
2018-12-21T02:57:03.508Z,73.2
2018-12-21T03:12:16.736Z,74.7
2018-12-21T03:27:29.905Z,74.8
2018-12-21T03:42:42.746Z,73.8
2018-12-21T03:57:55.407Z,73.5
2018-12-21T04:13:08.772Z,73
2018-12-21T04:28:21.974Z,73.5
2018-12-21T04:43:34.883Z,73.7
2018-12-21T04:58:41.123Z,74
2018-12-21T05:14:00.912Z,73.6
2018-12-21T05:29:13.985Z,72
2018-12-21T05:44:27.269Z,71.3
2018-12-21T05:59:40.169Z,70.5
2018-12-21T06:14:56.488Z,70.5
2018-12-21T06:30:06.134Z,72.7
2018-12-21T06:45:18.817Z,74.4
2018-12-21T07:00:31.594Z,74.8
2018-12-21T07:15:38.623Z,74.7
2018-12-21T07:30:57.192Z,74.8
2018-12-21T07:46:10.110Z,71.9
2018-12-21T08:01:23.442Z,69.9
2018-12-21T08:16:36.598Z,68.2
2018-12-21T08:31:49.773Z,67.8
2018-12-21T08:47:03.129Z,68.3
2018-12-21T09:02:16.202Z,69.5
2018-12-21T09:17:29.672Z,69.3
2018-12-21T09:32:37.621Z,68.5
2018-12-21T09:47:56.051Z,68.4
2018-12-21T10:03:10.250Z,68.6
2018-12-21T10:18:22.754Z,69.5
2018-12-21T10:33:35.992Z,69.8
2018-12-21T10:48:49.584Z,75.6
2018-12-21T11:04:02.948Z,80.5
2018-12-21T11:19:16.134Z,82.2
2018-12-21T11:34:29.401Z,82.8
2018-12-21T11:49:36.643Z,82.1
2018-12-21T12:04:55.427Z,82.8
2018-12-21T12:20:08.410Z,84.3
2018-12-21T12:35:21.522Z,82.3
2018-12-21T12:50:34.723Z,81.5
2018-12-21T13:05:48.380Z,81.5
2018-12-21T13:21:01.122Z,82.5
2018-12-21T13:36:14.318Z,81.4
2018-12-21T13:51:27.446Z,81.9
2018-12-21T14:06:35.693Z,84
2018-12-21T14:21:53.768Z,83.9
2018-12-21T14:37:06.395Z,83.6
2018-12-21T14:52:19.313Z,87.1
2018-12-21T15:07:32.235Z,87
2018-12-21T15:22:45.238Z,86.8
2018-12-21T15:37:58.126Z,86.2
2018-12-21T15:53:11.044Z,86.2
2018-12-21T16:08:24.125Z,84.7
2018-12-21T16:23:33.712Z,83.4
2018-12-21T16:38:50.604Z,85.1
2018-12-21T16:54:05.316Z,85.2
2018-12-21T17:09:17.784Z,85.3
2018-12-21T17:24:21.377Z,86
2018-12-21T17:39:46.477Z,83.1
2018-12-21T17:55:00.898Z,78.6
2018-12-21T18:10:15.652Z,75.8
2018-12-21T18:25:30.548Z,74.1
2018-12-21T18:40:40.306Z,72.8
2018-12-21T18:56:00.359Z,71.8
2018-12-21T19:11:17.333Z,71.8
2018-12-21T19:26:30.238Z,72
2018-12-21T19:41:45.504Z,70.2
2018-12-21T19:57:04.884Z,68.6
2018-12-21T20:12:14.984Z,65.5
2018-12-21T20:27:30.071Z,62.7
2018-12-21T20:42:45.223Z,63.5
2018-12-21T20:57:51.551Z,62.5
2018-12-21T21:13:19.685Z,61.7
2018-12-21T21:28:30.809Z,64
2018-12-21T21:43:46.030Z,62
2018-12-21T21:59:00.634Z,71.2
2018-12-21T22:14:11.652Z,69.8
2018-12-21T22:29:30.283Z,63.8
2018-12-21T22:44:44.996Z,61.3
2018-12-21T22:59:59.888Z,63.6
2018-12-21T23:15:02.722Z,64.3
2018-12-21T23:30:29.543Z,63.9
2018-12-21T23:45:44.419Z,60.6
